Time;durP1;ratioP1;P1;durP2;ratioP2;P2;SDS_P1;SDS_P2;PMS_P1;PMS_P2;Temp;Humidity;BMP_temperature;BMP_pressure;BME280_temperature;BME280_humidity;BME280_pressure;Samples;Min_cycle;Max_cycle;Signal;HPM_P1;HPM_P2
2021/04/21 00:02:00;;;;;;;41.15;29.67;;;7.20;99.90;;;;;;4161849;28;20041;-82
2021/04/21 00:04:03;;;;;;;42.83;31.60;;;7.30;99.90;;;;;;4161359;28;20557;-82
2021/04/21 00:06:05;;;;;;;41.28;29.20;;;7.30;99.90;;;;;;4136598;28;20044;-81
2021/04/21 00:08:07;;;;;;;39.35;29.52;;;7.20;99.90;;;;;;4145016;28;20117;-82
2021/04/21 00:10:11;;;;;;;50.72;34.63;;;7.00;99.90;;;;;;4115041;28;20134;-82
2021/04/21 00:12:15;;;;;;;48.88;35.92;;;6.90;99.90;;;;;;4145161;28;20424;-82
2021/04/21 00:14:19;;;;;;;45.50;34.10;;;6.90;99.90;;;;;;4153643;28;20041;-82
2021/04/21 00:16:21;;;;;;;48.95;36.65;;;6.80;99.90;;;;;;4145600;28;20022;-83
2021/04/21 00:18:23;;;;;;;54.83;35.83;;;6.80;99.90;;;;;;4130021;28;20042;-82
2021/04/21 00:20:25;;;;;;;51.30;36.92;;;6.90;99.90;;;;;;4130682;28;20045;-82
2021/04/21 00:22:28;;;;;;;53.47;36.53;;;6.90;99.90;;;;;;4150091;28;20036;-82
2021/04/21 00:24:34;;;;;;;56.83;38.90;;;6.80;99.90;;;;;;4162365;28;20430;-82
2021/04/21 00:26:36;;;;;;;55.50;40.47;;;6.80;99.90;;;;;;4146172;28;20385;-82
2021/04/21 00:28:39;;;;;;;54.47;40.50;;;6.80;99.90;;;;;;4162219;28;20073;-82
2021/04/21 00:30:43;;;;;;;57.80;43.15;;;6.70;99.90;;;;;;4146218;28;20041;-83
2021/04/21 00:32:53;;;;;;;65.03;43.42;;;6.70;99.90;;;;;;4139156;28;20513;-82
2021/04/21 00:34:58;;;;;;;61.08;44.47;;;6.70;99.90;;;;;;4129813;28;20031;-83
2021/04/21 00:37:00;;;;;;;67.78;45.55;;;6.80;99.90;;;;;;4143620;28;20124;-83
2021/04/21 00:39:03;;;;;;;62.90;44.00;;;6.80;99.90;;;;;;4145376;28;21587;-83
2021/04/21 00:41:16;;;;;;;58.70;45.35;;;6.90;99.90;;;;;;4129748;28;20121;-82
2021/04/21 00:43:35;;;;;;;68.32;47.15;;;6.90;99.90;;;;;;4136624;28;20070;-83
2021/04/21 00:45:46;;;;;;;62.47;46.65;;;7.00;99.90;;;;;;4128628;28;20101;-83
2021/04/21 00:47:56;;;;;;;73.60;50.17;;;6.90;99.90;;;;;;4128552;28;20113;-84
2021/04/21 00:50:16;;;;;;;67.22;48.53;;;6.90;99.90;;;;;;4129193;28;20534;-83
2021/04/21 00:52:34;;;;;;;69.53;49.35;;;6.80;99.90;;;;;;4154187;28;20022;-82
2021/04/21 00:55:03;;;;;;;66.13;47.28;;;6.90;99.90;;;;;;4146836;28;20034;-82
2021/04/21 00:57:22;;;;;;;67.30;48.67;;;6.90;99.90;;;;;;4135462;28;20030;-83
2021/04/21 01:00:10;;;;;;;73.60;51.72;;;6.90;99.90;;;;;;4153507;28;20040;-82
2021/04/21 01:02:15;;;;;;;71.63;50.95;;;6.80;99.90;;;;;;4149105;28;20037;-83
2021/04/21 01:04:16;;;;;;;82.60;56.13;;;6.80;99.90;;;;;;4139852;28;20030;-82
2021/04/21 01:06:22;;;;;;;84.93;56.53;;;6.70;99.90;;;;;;4154503;28;20084;-82
2021/04/21 01:08:31;;;;;;;82.68;54.28;;;6.70;99.90;;;;;;4143967;28;20034;-82
2021/04/21 01:10:43;;;;;;;83.00;57.90;;;6.70;99.90;;;;;;4149684;28;20113;-82
2021/04/21 01:12:49;;;;;;;89.82;60.55;;;6.60;99.90;;;;;;4145866;28;20041;-82
2021/04/21 01:14:52;;;;;;;84.63;59.00;;;6.60;99.90;;;;;;4142232;28;20115;-82
2021/04/21 01:16:59;;;;;;;86.43;58.22;;;6.50;99.90;;;;;;4157301;28;20584;-81
2021/04/21 01:19:10;;;;;;;91.57;63.65;;;6.50;99.90;;;;;;4145263;28;20080;-82
2021/04/21 01:21:22;;;;;;;91.85;62.03;;;6.40;99.90;;;;;;4148171;28;20108;-81
2021/04/21 01:24:00;;;;;;;97.60;64.03;;;6.40;99.90;;;;;;4158894;28;20072;-81
2021/04/21 01:26:09;;;;;;;98.07;61.55;;;6.30;99.90;;;;;;4152523;28;20045;-80
2021/04/21 01:28:13;;;;;;;97.50;63.63;;;6.30;99.90;;;;;;4157806;28;20029;-81
2021/04/21 01:30:21;;;;;;;98.30;65.22;;;6.30;99.90;;;;;;4145649;28;20037;-81
2021/04/21 01:32:31;;;;;;;109.10;67.03;;;6.30;99.90;;;;;;4136473;28;20034;-81
2021/04/21 01:34:34;;;;;;;103.22;64.82;;;6.30;99.90;;;;;;4157635;28;20029;-83
2021/04/21 01:36:39;;;;;;;96.55;61.30;;;6.20;99.90;;;;;;4145379;28;20381;-82
2021/04/21 01:38:41;;;;;;;97.93;62.92;;;6.10;99.90;;;;;;4142226;28;20100;-82
2021/04/21 01:40:46;;;;;;;110.90;67.68;;;6.00;99.90;;;;;;4161848;28;20049;-82
2021/04/21 01:42:52;;;;;;;105.93;66.78;;;6.00;99.90;;;;;;4144726;28;20390;-82
2021/04/21 01:44:56;;;;;;;102.00;60.70;;;5.90;99.90;;;;;;4136464;28;20057;-81
2021/04/21 01:47:03;;;;;;;108.53;64.25;;;5.80;99.90;;;;;;4152745;28;20026;-81
2021/04/21 01:49:20;;;;;;;97.72;63.28;;;5.80;99.90;;;;;;4131197;28;20109;-80
2021/04/21 01:51:33;;;;;;;117.15;69.35;;;5.80;99.90;;;;;;4144912;28;20046;-82
2021/04/21 01:53:40;;;;;;;120.32;75.65;;;5.80;99.90;;;;;;4137659;28;20049;-81
2021/04/21 01:56:03;;;;;;;114.50;69.13;;;5.70;99.90;;;;;;4145365;28;20030;-82
2021/04/21 01:58:54;;;;;;;116.03;65.03;;;5.60;99.90;;;;;;4152286;28;20079;-81
2021/04/21 02:01:04;;;;;;;123.75;69.93;;;5.50;99.90;;;;;;4113496;28;20278;-80
2021/04/21 02:03:27;;;;;;;135.48;80.93;;;5.40;99.90;;;;;;4144226;28;20034;-81
2021/04/21 02:06:25;;;;;;;142.70;78.38;;;5.40;99.90;;;;;;4161317;28;20037;-81
2021/04/21 02:08:56;;;;;;;131.18;75.18;;;5.50;99.90;;;;;;4126062;28;20113;-82
2021/04/21 02:11:07;;;;;;;140.00;73.57;;;5.40;99.90;;;;;;4144622;28;20067;-83
2021/04/21 02:13:23;;;;;;;144.27;76.82;;;5.40;99.90;;;;;;4153196;28;20045;-81
2021/04/21 02:15:43;;;;;;;132.80;77.75;;;5.40;99.90;;;;;;4127501;28;20030;-82
2021/04/21 02:18:14;;;;;;;137.68;77.10;;;5.40;99.90;;;;;;4129723;28;20505;-82
2021/04/21 02:20:27;;;;;;;144.80;78.82;;;5.40;99.90;;;;;;4151217;28;20030;-82
2021/04/21 02:22:47;;;;;;;142.90;81.50;;;5.40;99.90;;;;;;4129280;28;20053;-82
2021/04/21 02:25:00;;;;;;;144.18;80.18;;;5.40;99.90;;;;;;4128368;28;20382;-82
2021/04/21 02:27:36;;;;;;;130.75;78.55;;;5.30;99.90;;;;;;4143259;28;20053;-81
2021/04/21 02:29:55;;;;;;;140.05;77.68;;;5.30;99.90;;;;;;4127078;28;20038;-83
2021/04/21 02:32:22;;;;;;;159.60;84.32;;;5.30;99.90;;;;;;4129044;28;20034;-82
2021/04/21 02:34:34;;;;;;;143.93;75.28;;;5.30;99.90;;;;;;4141391;28;20052;-82
2021/04/21 02:36:46;;;;;;;140.15;78.18;;;5.30;99.90;;;;;;4141403;28;20153;-84
2021/04/21 02:39:21;;;;;;;154.50;83.72;;;5.20;99.90;;;;;;4162844;28;20029;-83
2021/04/21 02:41:41;;;;;;;147.45;81.82;;;5.20;99.90;;;;;;4140875;28;20456;-83
2021/04/21 02:44:12;;;;;;;158.57;82.57;;;5.30;99.90;;;;;;4163673;28;20119;-83
2021/04/21 02:46:23;;;;;;;152.77;77.78;;;5.20;99.90;;;;;;4156429;28;20034;-83
2021/04/21 02:48:46;;;;;;;172.02;87.95;;;5.20;99.90;;;;;;4164761;28;20499;-83
2021/04/21 02:51:06;;;;;;;160.93;85.05;;;5.30;99.90;;;;;;4162588;28;20040;-82
2021/04/21 02:53:15;;;;;;;164.85;86.78;;;5.30;99.90;;;;;;4138550;28;20041;-82
2021/04/21 02:55:35;;;;;;;164.02;86.32;;;5.30;99.90;;;;;;4154308;28;20091;-83
2021/04/21 02:57:57;;;;;;;172.00;89.07;;;5.30;99.90;;;;;;4137743;28;20044;-83
2021/04/21 03:00:06;;;;;;;176.32;89.78;;;5.30;99.90;;;;;;4144164;28;20054;-83
2021/04/21 03:02:10;;;;;;;181.13;91.07;;;5.40;99.90;;;;;;4145481;28;20062;-83
2021/04/21 03:04:32;;;;;;;172.18;92.85;;;5.30;99.90;;;;;;4160444;28;20117;-83
2021/04/21 03:06:38;;;;;;;164.68;88.20;;;5.50;99.90;;;;;;4153526;28;20041;-84
2021/04/21 03:08:42;;;;;;;177.23;90.47;;;5.50;99.90;;;;;;4164544;28;20034;-83
2021/04/21 03:11:06;;;;;;;172.38;90.05;;;5.50;99.90;;;;;;4162207;28;20059;-84
2021/04/21 03:13:13;;;;;;;179.85;91.03;;;5.50;99.90;;;;;;4132096;28;20038;-83
2021/04/21 03:15:20;;;;;;;177.52;94.03;;;5.40;99.90;;;;;;4141017;28;20477;-83
2021/04/21 03:17:21;;;;;;;179.27;97.03;;;5.40;99.90;;;;;;4147383;28;20037;-84
2021/04/21 03:19:28;;;;;;;209.68;101.18;;;5.50;99.90;;;;;;4144503;28;20265;-82
2021/04/21 03:21:33;;;;;;;191.63;98.43;;;5.50;99.90;;;;;;4168082;28;20036;-84
2021/04/21 03:23:38;;;;;;;184.05;95.28;;;5.40;99.90;;;;;;4148966;28;20188;-84
2021/04/21 03:25:41;;;;;;;193.50;95.10;;;5.50;99.90;;;;;;4148013;28;20026;-84
2021/04/21 03:27:43;;;;;;;;;;;5.50;99.90;;;;;;4147588;28;20173;-82
2021/04/21 03:29:48;;;;;;;193.52;91.75;;;5.50;99.90;;;;;;4161355;28;20008;-84
2021/04/21 03:31:49;;;;;;;191.80;96.85;;;5.60;99.90;;;;;;4147356;28;20525;-82
2021/04/21 03:33:55;;;;;;;177.77;95.43;;;5.50;99.90;;;;;;4164221;28;20029;-82
2021/04/21 03:35:58;;;;;;;184.20;92.85;;;5.50;99.90;;;;;;4164160;28;20030;-82
2021/04/21 03:38:09;;;;;;;190.43;97.00;;;5.50;99.90;;;;;;4163648;28;20120;-82
2021/04/21 03:40:11;;;;;;;184.10;92.68;;;5.50;99.90;;;;;;4153579;28;20582;-83
2021/04/21 03:42:12;;;;;;;196.53;97.40;;;5.50;99.90;;;;;;4146761;28;20045;-84
2021/04/21 03:44:13;;;;;;;205.55;102.20;;;5.40;99.90;;;;;;4131097;28;20285;-83
2021/04/21 03:46:15;;;;;;;193.05;102.35;;;5.40;99.90;;;;;;4140234;28;20396;-83
2021/04/21 03:48:18;;;;;;;204.88;100.90;;;5.40;99.90;;;;;;4147273;28;20062;-82
2021/04/21 03:50:20;;;;;;;204.90;103.28;;;;;;;;;;4132197;28;20074;-82
2021/04/21 03:52:23;;;;;;;208.68;102.13;;;5.30;99.90;;;;;;4160929;28;20037;-82
2021/04/21 03:54:26;;;;;;;195.57;97.07;;;5.30;99.90;;;;;;4136502;28;20039;-83
2021/04/21 03:56:29;;;;;;;211.88;101.07;;;5.20;99.90;;;;;;4161597;28;20048;-82
2021/04/21 03:58:32;;;;;;;188.65;92.65;;;5.20;99.90;;;;;;4145994;28;20036;-82
2021/04/21 04:00:36;;;;;;;199.52;94.97;;;5.10;99.90;;;;;;4148998;28;20124;-83
2021/04/21 04:02:41;;;;;;;195.27;97.18;;;5.10;99.90;;;;;;4133984;28;20038;-82
2021/04/21 04:04:51;;;;;;;201.95;95.20;;;5.10;99.90;;;;;;4144161;28;20120;-82
2021/04/21 04:06:56;;;;;;;203.48;98.50;;;5.10;99.90;;;;;;4150002;28;20120;-83
2021/04/21 04:09:04;;;;;;;201.48;96.40;;;5.10;99.90;;;;;;4159728;28;20059;-82
2021/04/21 04:11:06;;;;;;;208.77;97.10;;;5.10;99.90;;;;;;4145594;28;20041;-82
2021/04/21 04:13:11;;;;;;;206.30;95.78;;;5.10;99.90;;;;;;4161892;28;20072;-82
2021/04/21 04:15:14;;;;;;;196.80;93.50;;;5.20;99.90;;;;;;4145319;28;20038;-82
2021/04/21 04:17:21;;;;;;;195.50;92.93;;;5.30;99.90;;;;;;4150608;28;20514;-84
2021/04/21 04:19:23;;;;;;;220.88;97.70;;;5.40;99.90;;;;;;4144716;28;20277;-82
2021/04/21 04:21:36;;;;;;;196.23;91.40;;;5.30;99.90;;;;;;4149425;28;20040;-84
2021/04/21 04:23:42;;;;;;;193.95;92.28;;;5.30;99.90;;;;;;4155302;28;20041;-84
2021/04/21 04:25:50;;;;;;;194.98;93.72;;;5.30;99.90;;;;;;4146605;28;20052;-82
2021/04/21 04:27:53;;;;;;;214.65;98.03;;;5.20;99.90;;;;;;4147791;28;20029;-83
2021/04/21 04:29:59;;;;;;;193.90;94.93;;;5.10;99.90;;;;;;4130442;28;20054;-82
2021/04/21 04:32:03;;;;;;;180.55;88.68;;;5.10;99.90;;;;;;4134525;28;20022;-83
2021/04/21 04:34:05;;;;;;;190.48;88.75;;;5.10;99.90;;;;;;4153489;28;20119;-82
2021/04/21 04:36:07;;;;;;;187.75;91.43;;;5.10;99.90;;;;;;4137037;28;20052;-82
2021/04/21 04:38:08;;;;;;;188.07;93.32;;;5.10;99.90;;;;;;4142344;28;20505;-83
2021/04/21 04:40:15;;;;;;;191.73;94.60;;;5.10;99.90;;;;;;4130532;28;20166;-82
2021/04/21 04:42:16;;;;;;;187.57;93.45;;;5.10;99.90;;;;;;4118185;28;20045;-83
2021/04/21 04:44:17;;;;;;;194.25;95.38;;;5.00;99.90;;;;;;4147589;28;20116;-83
2021/04/21 04:46:20;;;;;;;192.45;95.03;;;5.00;99.90;;;;;;4130439;28;20030;-83
2021/04/21 04:48:28;;;;;;;203.00;92.20;;;5.10;99.90;;;;;;4141137;28;20125;-83
2021/04/21 04:50:31;;;;;;;195.60;98.30;;;5.10;99.90;;;;;;4141582;28;20045;-82
2021/04/21 04:52:35;;;;;;;206.50;94.70;;;5.10;99.90;;;;;;4141305;28;20046;-83
2021/04/21 04:54:39;;;;;;;195.50;91.85;;;5.10;99.90;;;;;;4143842;28;20099;-83
2021/04/21 04:56:45;;;;;;;194.88;95.05;;;5.10;99.90;;;;;;4162758;28;20033;-83
2021/04/21 04:58:46;;;;;;;202.02;97.30;;;5.10;99.90;;;;;;4141249;28;20038;-82
2021/04/21 05:00:49;;;;;;;202.80;96.70;;;;;;;;;;4138287;28;20037;-82
2021/04/21 05:02:56;;;;;;;204.30;92.88;;;5.80;99.90;;;;;;4151755;28;20464;-84
2021/04/21 05:04:59;;;;;;;204.18;91.75;;;5.20;99.90;;;;;;4162539;28;20026;-81
2021/04/21 05:07:05;;;;;;;184.70;87.60;;;5.30;99.90;;;;;;4161994;28;20037;-82
2021/04/21 05:09:10;;;;;;;203.70;92.57;;;5.30;99.90;;;;;;4134527;28;20038;-82
2021/04/21 05:11:16;;;;;;;199.07;93.70;;;5.20;99.90;;;;;;4125682;28;20457;-82
2021/04/21 05:13:24;;;;;;;187.93;87.43;;;5.20;99.90;;;;;;4136936;28;20038;-82
2021/04/21 05:15:39;;;;;;;197.90;88.30;;;5.30;99.90;;;;;;4141225;28;20150;-83
2021/04/21 05:17:59;;;;;;;201.23;93.75;;;5.40;99.90;;;;;;4143474;28;20042;-82
2021/04/21 05:20:10;;;;;;;203.77;89.95;;;5.30;99.90;;;;;;4145664;28;20026;-83
2021/04/21 05:22:32;;;;;;;186.00;94.72;;;5.40;99.90;;;;;;4152610;28;20030;-84
2021/04/21 05:24:54;;;;;;;213.18;96.50;;;5.50;99.90;;;;;;4144272;28;20755;-83
2021/04/21 05:27:34;;;;;;;201.30;90.70;;;5.60;99.90;;;;;;4133955;28;20040;-84
2021/04/21 05:30:01;;;;;;;190.80;89.60;;;5.60;99.90;;;;;;4155893;28;20090;-83
2021/04/21 05:32:45;;;;;;;194.05;95.28;;;5.70;99.90;;;;;;4145283;28;20037;-79
2021/04/21 05:35:13;;;;;;;204.33;92.60;;;5.80;99.90;;;;;;4145785;28;20029;-83
2021/04/21 05:38:01;;;;;;;190.05;93.18;;;5.90;99.90;;;;;;4154606;28;20304;-83
2021/04/21 05:40:35;;;;;;;184.98;92.38;;;6.10;99.90;;;;;;4162139;28;20467;-82
2021/04/21 05:43:32;;;;;;;199.60;96.20;;;6.20;99.90;;;;;;4150500;28;20116;-83
2021/04/21 05:46:15;;;;;;;183.02;90.47;;;6.30;99.90;;;;;;4147091;28;20044;-85
2021/04/21 05:48:49;;;;;;;182.45;86.93;;;6.40;99.90;;;;;;4141290;28;20033;-84
2021/04/21 05:51:16;;;;;;;176.10;88.70;;;6.50;99.90;;;;;;4131112;28;20033;-84
2021/04/21 05:53:44;;;;;;;175.88;89.72;;;6.60;99.90;;;;;;4148439;28;20034;-85
2021/04/21 05:56:21;;;;;;;170.65;89.20;;;6.70;99.90;;;;;;4158600;28;20124;-83
2021/04/21 05:58:36;;;;;;;173.57;88.22;;;;;;;;;;4142091;28;20053;-85
2021/04/21 06:01:12;;;;;;;165.23;88.85;;;6.60;99.90;;;;;;4139509;28;20472;-83
2021/04/21 06:03:16;;;;;;;180.48;91.70;;;6.90;99.90;;;;;;4160868;28;20504;-85
2021/04/21 06:05:17;;;;;;;170.90;87.95;;;7.00;99.90;;;;;;4151020;28;20037;-84
2021/04/21 06:07:17;;;;;;;174.10;90.03;;;7.10;99.90;;;;;;4161522;28;20033;-84
2021/04/21 06:09:18;;;;;;;164.48;85.28;;;7.20;99.90;;;;;;4158682;28;20514;-82
2021/04/21 06:11:30;;;;;;;174.77;89.53;;;7.30;99.90;;;;;;4161676;28;20030;-83
2021/04/21 06:13:33;;;;;;;161.38;86.95;;;7.30;99.90;;;;;;4144165;28;20045;-82
2021/04/21 06:15:36;;;;;;;168.65;84.95;;;7.40;99.90;;;;;;4157105;28;20038;-83
2021/04/21 06:17:36;;;;;;;159.43;88.97;;;7.50;99.90;;;;;;4161619;28;20038;-84
2021/04/21 06:19:38;;;;;;;169.55;86.85;;;7.60;99.90;;;;;;4161648;28;20038;-84
2021/04/21 06:21:39;;;;;;;154.75;84.93;;;7.60;99.90;;;;;;4144827;28;20041;-82
2021/04/21 06:23:40;;;;;;;157.93;84.65;;;7.70;99.90;;;;;;4146141;28;20037;-84
2021/04/21 06:25:50;;;;;;;164.30;86.80;;;7.80;99.90;;;;;;4126941;28;20050;-86
2021/04/21 06:27:50;;;;;;;139.82;83.72;;;7.80;99.90;;;;;;4129641;28;20367;-85
2021/04/21 06:30:04;;;;;;;140.98;82.43;;;7.90;99.90;;;;;;4143330;28;20133;-84
2021/04/21 06:32:13;;;;;;;139.20;75.32;;;8.00;99.90;;;;;;4154127;28;20069;-84
2021/04/21 06:34:14;;;;;;;136.80;78.45;;;8.10;99.90;;;;;;4153648;28;20076;-84
2021/04/21 06:36:15;;;;;;;149.43;79.63;;;8.20;99.90;;;;;;4151982;28;20486;-84
2021/04/21 06:38:16;;;;;;;132.38;79.07;;;8.20;99.90;;;;;;4140447;28;20030;-84
2021/04/21 06:40:24;;;;;;;129.18;78.57;;;8.40;99.90;;;;;;4156023;28;20036;-84
2021/04/21 06:42:25;;;;;;;126.28;77.00;;;8.50;99.90;;;;;;4142107;28;20093;-84
2021/04/21 06:44:43;;;;;;;126.85;77.72;;;8.60;99.90;;;;;;4155983;28;20107;-84
2021/04/21 06:46:43;;;;;;;119.93;73.00;;;8.70;99.90;;;;;;4142982;28;20042;-84
2021/04/21 06:48:45;;;;;;;122.13;73.22;;;8.90;99.90;;;;;;4143330;28;20061;-85
2021/04/21 06:50:45;;;;;;;108.35;68.18;;;8.90;99.90;;;;;;4144059;28;20344;-84
2021/04/21 06:52:46;;;;;;;109.97;68.28;;;9.00;99.90;;;;;;4160662;28;20084;-85
2021/04/21 06:55:02;;;;;;;105.25;68.70;;;9.10;99.90;;;;;;4140610;28;20513;-85
2021/04/21 06:57:03;;;;;;;109.53;69.95;;;9.10;99.90;;;;;;4149742;28;20048;-85
2021/04/21 06:59:05;;;;;;;101.53;64.20;;;9.10;99.90;;;;;;4125337;28;20039;-84
2021/04/21 07:01:25;;;;;;;103.10;63.83;;;9.20;99.90;;;;;;4140309;28;20117;-81
2021/04/21 07:03:25;;;;;;;93.90;63.50;;;9.50;99.90;;;;;;4131304;28;20488;-84
2021/04/21 07:05:42;;;;;;;90.22;61.28;;;9.20;99.90;;;;;;4152303;28;20083;-85
2021/04/21 07:07:46;;;;;;;83.10;59.67;;;9.40;99.90;;;;;;4131402;28;20449;-85
2021/04/21 07:09:47;;;;;;;83.03;60.78;;;9.40;99.90;;;;;;4143943;28;20045;-85
2021/04/21 07:12:00;;;;;;;77.88;59.08;;;9.50;99.90;;;;;;4153577;28;20030;-84
2021/04/21 07:14:01;;;;;;;79.72;58.70;;;9.60;99.90;;;;;;4138861;28;20060;-80
2021/04/21 07:16:09;;;;;;;78.63;58.28;;;9.70;99.90;;;;;;4140892;28;20065;-84
2021/04/21 07:18:17;;;;;;;77.97;56.10;;;9.70;99.90;;;;;;4148512;28;20038;-84
2021/04/21 07:20:18;;;;;;;72.55;52.58;;;9.90;99.90;;;;;;4140000;28;20038;-84
2021/04/21 07:22:19;;;;;;;62.13;49.25;;;10.00;99.90;;;;;;4139413;28;20585;-84
2021/04/21 07:24:29;;;;;;;61.45;48.45;;;10.00;99.90;;;;;;4171674;28;20048;-83
2021/04/21 07:26:43;;;;;;;62.00;46.10;;;10.10;99.90;;;;;;4172918;28;20044;-84
2021/04/21 07:28:45;;;;;;;60.63;47.35;;;10.20;99.90;;;;;;4151071;28;20564;-84
2021/04/21 07:30:46;;;;;;;60.53;46.55;;;10.30;99.90;;;;;;4117514;28;20058;-83
2021/04/21 07:32:47;;;;;;;60.10;49.20;;;10.30;99.90;;;;;;4145866;28;20073;-84
2021/04/21 07:35:04;;;;;;;54.20;45.55;;;10.40;99.90;;;;;;4163795;28;20052;-83
2021/04/21 07:37:05;;;;;;;55.25;43.65;;;10.50;99.90;;;;;;4135347;28;20144;-83
2021/04/21 07:39:07;;;;;;;50.85;42.50;;;10.50;99.90;;;;;;4146608;28;20030;-85
2021/04/21 07:41:08;;;;;;;52.45;41.20;;;10.60;99.90;;;;;;4120100;28;20446;-83
2021/04/21 07:43:18;;;;;;;50.17;38.60;;;10.70;99.90;;;;;;4120896;28;20125;-86
2021/04/21 07:45:21;;;;;;;45.78;36.65;;;10.80;99.90;;;;;;4142287;28;20064;-84
2021/04/21 07:47:24;;;;;;;42.22;35.65;;;10.90;99.90;;;;;;4138860;28;20041;-84
2021/04/21 07:49:30;;;;;;;39.08;31.58;;;11.00;99.90;;;;;;4131205;28;20073;-84
2021/04/21 07:51:32;;;;;;;43.58;30.50;;;11.20;99.90;;;;;;4133942;28;20034;-84
2021/04/21 07:53:33;;;;;;;38.30;29.58;;;11.20;99.90;;;;;;4161493;28;20040;-84
2021/04/21 07:55:34;;;;;;;37.53;25.65;;;11.30;99.90;;;;;;4162962;28;20029;-84
2021/04/21 07:57:36;;;;;;;33.92;27.50;;;11.30;99.90;;;;;;4146645;28;20058;-84
2021/04/21 07:59:42;;;;;;;32.47;25.27;;;11.30;99.90;;;;;;4142127;28;20817;-84
2021/04/21 08:01:47;;;;;;;30.77;27.10;;;11.30;99.90;;;;;;4145048;28;20393;-85
2021/04/21 08:03:48;;;;;;;33.17;27.17;;;11.30;99.90;;;;;;4144539;28;20092;-84
2021/04/21 08:05:53;;;;;;;32.75;26.50;;;11.40;99.90;;;;;;4160991;28;20086;-85
2021/04/21 08:08:03;;;;;;;38.33;27.02;;;11.50;99.90;;;;;;4128721;28;20713;-85
2021/04/21 08:10:24;;;;;;;30.35;24.77;;;11.60;99.90;;;;;;4145956;28;20089;-84
2021/04/21 08:12:30;;;;;;;32.05;25.25;;;11.80;99.90;;;;;;4131942;28;20027;-84
2021/04/21 08:14:44;;;;;;;28.63;24.15;;;11.90;99.90;;;;;;4142513;28;20276;-83
2021/04/21 08:16:58;;;;;;;32.38;24.20;;;12.00;99.90;;;;;;4139838;28;20089;-83
2021/04/21 08:19:00;;;;;;;29.73;23.70;;;12.20;99.90;;;;;;4139418;28;20038;-85
2021/04/21 08:21:01;;;;;;;29.83;22.48;;;12.20;99.90;;;;;;4148871;28;20030;-80
2021/04/21 08:23:08;;;;;;;31.08;23.15;;;12.30;99.90;;;;;;4145312;28;20057;-84
2021/04/21 08:25:16;;;;;;;27.00;21.73;;;12.40;99.90;;;;;;4163098;28;20022;-86
2021/04/21 08:27:18;;;;;;;29.37;23.43;;;12.50;99.90;;;;;;4162544;28;20619;-84
2021/04/21 08:29:20;;;;;;;26.27;21.92;;;12.70;99.90;;;;;;4157300;28;20026;-84
2021/04/21 08:31:25;;;;;;;27.50;21.83;;;12.80;99.90;;;;;;4146453;28;20057;-82
2021/04/21 08:33:27;;;;;;;23.70;20.38;;;12.90;99.90;;;;;;4162724;28;20064;-82
2021/04/21 08:35:28;;;;;;;30.40;23.60;;;12.90;99.90;;;;;;4146322;28;20062;-83
2021/04/21 08:37:29;;;;;;;27.65;21.75;;;12.90;99.90;;;;;;4146192;28;20041;-83
2021/04/21 08:39:31;;;;;;;24.70;20.92;;;13.20;99.90;;;;;;4142678;28;20045;-84
2021/04/21 08:41:37;;;;;;;27.00;19.90;;;13.20;99.90;;;;;;4154073;28;20038;-84
2021/04/21 08:43:38;;;;;;;28.20;22.27;;;13.40;99.90;;;;;;4144732;28;20034;-84
2021/04/21 08:45:39;;;;;;;24.80;21.15;;;13.60;99.90;;;;;;4162276;28;20041;-83
2021/04/21 08:47:41;;;;;;;26.27;22.92;;;13.70;99.90;;;;;;4162120;28;20390;-85
2021/04/21 08:49:43;;;;;;;28.60;22.80;;;13.70;99.90;;;;;;4155028;28;21643;-84
2021/04/21 08:51:45;;;;;;;25.50;20.58;;;13.70;99.90;;;;;;4172699;28;20103;-84
2021/04/21 08:53:54;;;;;;;26.10;21.73;;;13.80;99.90;;;;;;4177081;28;20119;-84
2021/04/21 08:55:55;;;;;;;26.33;19.52;;;13.90;99.90;;;;;;4144496;28;20026;-84
2021/04/21 08:57:57;;;;;;;22.80;19.05;;;14.00;99.90;;;;;;4157115;28;20026;-85
2021/04/21 08:59:58;;;;;;;32.45;21.83;;;14.20;99.90;;;;;;4147866;28;20124;-84
2021/04/21 09:01:59;;;;;;;29.58;22.10;;;14.30;99.90;;;;;;4157379;28;20057;-84
2021/04/21 09:04:00;;;;;;;26.33;22.08;;;14.30;99.90;;;;;;4133501;28;20037;-82
2021/04/21 09:06:03;;;;;;;24.98;19.83;;;14.40;99.90;;;;;;4132377;28;20042;-81
2021/04/21 09:08:05;;;;;;;30.45;23.40;;;14.50;99.90;;;;;;4162342;28;20100;-83
2021/04/21 09:10:10;;;;;;;31.67;21.25;;;14.60;99.90;;;;;;4154859;28;20049;-85
2021/04/21 09:12:12;;;;;;;30.45;21.85;;;14.80;99.90;;;;;;4148900;28;20089;-84
2021/04/21 09:14:14;;;;;;;24.08;17.65;;;14.90;99.90;;;;;;4144940;28;20041;-82
2021/04/21 09:16:18;;;;;;;25.27;21.23;;;14.80;99.90;;;;;;4137935;28;20065;-83
2021/04/21 09:18:33;;;;;;;25.05;19.38;;;14.50;99.90;;;;;;4145121;28;20044;-83
2021/04/21 09:20:47;;;;;;;26.13;22.15;;;14.60;99.90;;;;;;4149124;28;20033;-85
2021/04/21 09:23:20;;;;;;;25.27;20.48;;;14.50;99.90;;;;;;4147181;28;20044;-83
2021/04/21 09:25:21;;;;;;;30.88;25.02;;;14.40;99.90;;;;;;4140607;28;20041;-86
2021/04/21 09:27:34;;;;;;;31.52;25.20;;;14.40;99.90;;;;;;4129380;28;20030;-84
2021/04/21 09:29:35;;;;;;;32.60;26.48;;;14.60;99.90;;;;;;4161964;28;20454;-84
2021/04/21 09:31:36;;;;;;;28.73;25.67;;;14.80;99.90;;;;;;4127967;28;20034;-83
2021/04/21 09:33:36;;;;;;;35.47;27.60;;;15.00;99.90;;;;;;4126419;28;20054;-83
2021/04/21 09:35:39;;;;;;;31.55;27.40;;;15.00;99.90;;;;;;4134725;28;20103;-82
2021/04/21 09:37:40;;;;;;;37.78;28.40;;;15.00;99.90;;;;;;4170244;28;20388;-85
2021/04/21 09:39:40;;;;;;;32.67;27.45;;;15.00;99.90;;;;;;4144486;28;20068;-83
2021/04/21 09:41:42;;;;;;;37.05;30.25;;;15.40;99.90;;;;;;4161287;28;20064;-84
2021/04/21 09:43:44;;;;;;;36.55;26.73;;;15.30;99.90;;;;;;4139895;28;20131;-84
2021/04/21 09:45:48;;;;;;;27.98;23.33;;;15.40;99.90;;;;;;4144058;28;20107;-85
2021/04/21 09:48:08;;;;;;;33.30;25.05;;;15.30;99.90;;;;;;4144378;28;20040;-82
2021/04/21 09:50:11;;;;;;;38.47;30.13;;;15.60;99.90;;;;;;4143880;28;20080;-82
2021/04/21 09:52:12;;;;;;;40.13;28.35;;;16.00;99.90;;;;;;4138816;28;20057;-82
2021/04/21 09:54:30;;;;;;;30.95;25.50;;;16.40;99.90;;;;;;4151301;28;20034;-81
2021/04/21 09:56:31;;;;;;;35.60;25.55;;;16.50;99.90;;;;;;4145063;28;20040;-83
2021/04/21 09:58:52;;;;;;;32.83;25.63;;;16.50;99.90;;;;;;4138879;28;20030;-80
2021/04/21 10:00:53;;;;;;;35.53;25.52;;;16.40;99.90;;;;;;4171818;28;20071;-83
2021/04/21 10:02:55;;;;;;;38.83;28.48;;;16.40;99.90;;;;;;4156955;28;20136;-82
2021/04/21 10:04:56;;;;;;;33.90;25.95;;;16.40;99.90;;;;;;4145058;28;20042;-84
2021/04/21 10:07:02;;;;;;;30.48;23.90;;;16.10;99.90;;;;;;4134459;28;20034;-84
2021/04/21 10:09:04;;;;;;;30.25;22.42;;;16.10;99.90;;;;;;4149977;28;20113;-83
2021/04/21 10:11:05;;;;;;;33.37;22.97;;;16.20;99.90;;;;;;4128281;28;20050;-80
2021/04/21 10:13:20;;;;;;;34.72;25.50;;;16.20;99.90;;;;;;4162532;28;20311;-81
2021/04/21 10:15:30;;;;;;;36.95;24.33;;;16.30;99.90;;;;;;4144826;28;20072;-82
2021/04/21 10:17:40;;;;;;;30.40;23.35;;;16.40;99.90;;;;;;4139462;28;20397;-80
2021/04/21 10:19:42;;;;;;;30.98;21.52;;;16.60;99.90;;;;;;4161827;28;20037;-79
2021/04/21 10:21:44;;;;;;;31.52;22.75;;;17.00;99.90;;;;;;4145588;28;20049;-79
2021/04/21 10:23:47;;;;;;;27.15;20.88;;;16.80;99.90;;;;;;4155715;28;20037;-81
2021/04/21 10:25:48;;;;;;;29.95;21.55;;;17.00;99.90;;;;;;4145673;28;20435;-79
2021/04/21 10:27:50;;;;;;;30.35;21.45;;;17.20;99.90;;;;;;4140873;28;20117;-81
2021/04/21 10:29:51;;;;;;;29.70;21.80;;;17.00;99.90;;;;;;4143607;28;20129;-81
2021/04/21 10:31:54;;;;;;;27.27;21.02;;;17.10;99.90;;;;;;4164810;28;20500;-81
2021/04/21 10:33:56;;;;;;;27.33;21.05;;;17.30;99.90;;;;;;4163116;28;20029;-85
2021/04/21 10:35:57;;;;;;;27.45;20.55;;;17.30;99.90;;;;;;4162397;28;20075;-85
2021/04/21 10:37:58;;;;;;;30.80;23.23;;;17.30;99.90;;;;;;4145988;28;20164;-83
2021/04/21 10:40:01;;;;;;;29.08;21.98;;;17.40;99.90;;;;;;4139739;28;20048;-83
2021/04/21 10:42:15;;;;;;;28.63;20.20;;;17.40;99.90;;;;;;4136346;28;20124;-81
2021/04/21 10:44:23;;;;;;;32.63;22.27;;;17.20;99.90;;;;;;4130311;28;20137;-83
2021/04/21 10:46:24;;;;;;;30.67;20.88;;;17.20;99.90;;;;;;4143363;28;20113;-83
2021/04/21 10:48:38;;;;;;;32.67;24.15;;;17.50;99.90;;;;;;4132876;28;20066;-84
2021/04/21 10:50:45;;;;;;;29.27;22.20;;;17.80;99.90;;;;;;4127967;28;20101;-81
2021/04/21 10:52:46;;;;;;;32.15;22.58;;;18.00;99.90;;;;;;4130353;28;20041;-82
2021/04/21 10:55:06;;;;;;;32.22;23.58;;;18.00;99.90;;;;;;4147702;28;20034;-83
2021/04/21 10:57:22;;;;;;;31.58;23.67;;;18.00;99.90;;;;;;4151751;28;20045;-82